sensor_id;sensor_type;location;lat;lon;timestamp;temperature;humidity
26051;DHT22;13825;53.496;10.020;2023-04-01T05:31:57;9.30;99.90
26051;DHT22;13825;53.496;10.020;2023-04-01T05:34:24;9.20;99.90
26051;DHT22;13825;53.496;10.020;2023-04-01T05:36:51;9.30;99.90
26051;DHT22;13825;53.496;10.020;2023-04-01T05:39:18;9.30;99.90
26051;DHT22;13825;53.496;10.020;2023-04-01T05:41:46;9.30;99.90
26051;DHT22;13825;53.496;10.020;2023-04-01T05:44:13;9.30;99.90
26051;DHT22;13825;53.496;10.020;2023-04-01T05:46:43;9.30;99.90
26051;DHT22;13825;53.496;10.020;2023-04-01T05:49:15;9.40;99.90
26051;DHT22;13825;53.496;10.020;2023-04-01T05:51:47;9.40;99.90
26051;DHT22;13825;53.496;10.020;2023-04-01T05:54:14;9.40;99.90
26051;DHT22;13825;53.496;10.020;2023-04-01T05:56:46;9.50;99.90
26051;DHT22;13825;53.496;10.020;2023-04-01T05:59:14;9.50;99.90
26051;DHT22;13825;53.496;10.020;2023-04-01T06:01:41;9.50;99.90
26051;DHT22;13825;53.496;10.020;2023-04-01T06:04:15;9.50;99.90
26051;DHT22;13825;53.496;10.020;2023-04-01T06:06:43;9.60;99.90
26051;DHT22;13825;53.496;10.020;2023-04-01T06:09:14;9.40;99.90
26051;DHT22;13825;53.496;10.020;2023-04-01T06:11:52;9.20;99.90
26051;DHT22;13825;53.496;10.020;2023-04-01T06:14:29;9.10;99.90
26051;DHT22;13825;53.496;10.020;2023-04-01T06:17:15;8.90;99.90
26051;DHT22;13825;53.496;10.020;2023-04-01T06:19:50;8.70;99.90
26051;DHT22;13825;53.496;10.020;2023-04-01T06:22:39;8.60;99.90
26051;DHT22;13825;53.496;10.020;2023-04-01T06:25:43;8.50;99.90
26051;DHT22;13825;53.496;10.020;2023-04-01T06:28:45;8.50;99.90
26051;DHT22;13825;53.496;10.020;2023-04-01T06:31:31;8.40;99.90
26051;DHT22;13825;53.496;10.020;2023-04-01T06:34:14;8.40;99.90
26051;DHT22;13825;53.496;10.020;2023-04-01T06:37:05;8.20;99.90
26051;DHT22;13825;53.496;10.020;2023-04-01T06:39:48;8.20;99.90
26051;DHT22;13825;53.496;10.020;2023-04-01T06:42:29;8.10;99.90
26051;DHT22;13825;53.496;10.020;2023-04-01T06:45:13;8.10;99.90
26051;DHT22;13825;53.496;10.020;2023-04-01T06:47:52;8.00;99.90
26051;DHT22;13825;53.496;10.020;2023-04-01T06:50:24;8.00;99.90
26051;DHT22;13825;53.496;10.020;2023-04-01T06:53:02;7.90;99.90
26051;DHT22;13825;53.496;10.020;2023-04-01T06:55:37;7.80;99.90
26051;DHT22;13825;53.496;10.020;2023-04-01T06:58:16;7.80;99.90
26051;DHT22;13825;53.496;10.020;2023-04-01T07:00:49;7.80;99.90
26051;DHT22;13825;53.496;10.020;2023-04-01T07:03:26;7.80;99.90
26051;DHT22;13825;53.496;10.020;2023-04-01T07:05:57;7.90;99.90
26051;DHT22;13825;53.496;10.020;2023-04-01T07:08:28;7.80;99.90
26051;DHT22;13825;53.496;10.020;2023-04-01T07:11:00;7.80;99.90
26051;DHT22;13825;53.496;10.020;2023-04-01T07:13:32;7.90;99.90
26051;DHT22;13825;53.496;10.020;2023-04-01T07:16:11;7.60;99.90
26051;DHT22;13825;53.496;10.020;2023-04-01T07:18:41;7.60;99.90
26051;DHT22;13825;53.496;10.020;2023-04-01T07:21:18;7.60;99.90
26051;DHT22;13825;53.496;10.020;2023-04-01T07:23:50;7.50;99.90
26051;DHT22;13825;53.496;10.020;2023-04-01T07:26:21;7.50;99.90
26051;DHT22;13825;53.496;10.020;2023-04-01T07:28:51;7.50;99.90
26051;DHT22;13825;53.496;10.020;2023-04-01T07:31:35;7.50;99.90
26051;DHT22;13825;53.496;10.020;2023-04-01T07:34:11;7.40;99.90
26051;DHT22;13825;53.496;10.020;2023-04-01T07:36:42;7.40;99.90
26051;DHT22;13825;53.496;10.020;2023-04-01T07:39:26;7.30;99.90
26051;DHT22;13825;53.496;10.020;2023-04-01T07:42:02;7.40;99.90
26051;DHT22;13825;53.496;10.020;2023-04-01T07:44:37;7.40;99.90
26051;DHT22;13825;53.496;10.020;2023-04-01T07:47:23;7.30;99.90
26051;DHT22;13825;53.496;10.020;2023-04-01T07:50:02;7.20;99.90
26051;DHT22;13825;53.496;10.020;2023-04-01T07:52:35;7.20;99.90
26051;DHT22;13825;53.496;10.020;2023-04-01T07:55:10;7.30;99.90
26051;DHT22;13825;53.496;10.020;2023-04-01T07:57:43;7.40;99.90
26051;DHT22;13825;53.496;10.020;2023-04-01T08:00:18;7.40;99.90
26051;DHT22;13825;53.496;10.020;2023-04-01T08:03:03;7.30;99.90
26051;DHT22;13825;53.496;10.020;2023-04-01T08:05:40;7.30;99.90
26051;DHT22;13825;53.496;10.020;2023-04-01T08:08:18;7.10;99.90
26051;DHT22;13825;53.496;10.020;2023-04-01T08:10:49;7.10;99.90
26051;DHT22;13825;53.496;10.020;2023-04-01T08:13:28;7.20;99.90
26051;DHT22;13825;53.496;10.020;2023-04-01T08:16:06;7.20;99.90
26051;DHT22;13825;53.496;10.020;2023-04-01T08:18:40;7.10;99.90
26051;DHT22;13825;53.496;10.020;2023-04-01T08:21:13;7.20;99.90
26051;DHT22;13825;53.496;10.020;2023-04-01T08:23:43;7.20;99.90
26051;DHT22;13825;53.496;10.020;2023-04-01T08:26:19;7.30;99.90
26051;DHT22;13825;53.496;10.020;2023-04-01T08:28:53;7.20;99.90
26051;DHT22;13825;53.496;10.020;2023-04-01T08:31:25;7.10;99.90
26051;DHT22;13825;53.496;10.020;2023-04-01T08:33:56;7.10;99.90
26051;DHT22;13825;53.496;10.020;2023-04-01T08:36:28;7.10;99.90
26051;DHT22;13825;53.496;10.020;2023-04-01T08:38:59;7.10;99.90
26051;DHT22;13825;53.496;10.020;2023-04-01T08:50:58;7.10;99.90
26051;DHT22;13825;53.496;10.020;2023-04-01T08:53:43;7.20;99.90
26051;DHT22;13825;53.496;10.020;2023-04-01T08:56:17;7.20;99.90
26051;DHT22;13825;53.496;10.020;2023-04-01T08:59:08;7.20;99.90
26051;DHT22;13825;53.496;10.020;2023-04-01T09:02:00;7.30;99.90
26051;DHT22;13825;53.496;10.020;2023-04-01T09:04:40;7.10;99.90
26051;DHT22;13825;53.496;10.020;2023-04-01T09:07:27;7.00;99.90
26051;DHT22;13825;53.496;10.020;2023-04-01T09:10:21;7.10;99.90
26051;DHT22;13825;53.496;10.020;2023-04-01T09:13:03;6.90;99.90
26051;DHT22;13825;53.496;10.020;2023-04-01T09:15:54;7.00;99.90
26051;DHT22;13825;53.496;10.020;2023-04-01T09:21:31;6.90;99.90
26051;DHT22;13825;53.496;10.020;2023-04-01T09:27:14;6.90;99.90
26051;DHT22;13825;53.496;10.020;2023-04-01T09:32:59;6.90;99.90
26051;DHT22;13825;53.496;10.020;2023-04-01T09:35:39;7.00;99.90
26051;DHT22;13825;53.496;10.020;2023-04-01T09:38:22;7.00;99.90
26051;DHT22;13825;53.496;10.020;2023-04-01T09:40:55;6.90;99.90
26051;DHT22;13825;53.496;10.020;2023-04-01T09:43:28;6.90;99.90
26051;DHT22;13825;53.496;10.020;2023-04-01T09:46:22;7.00;99.90
26051;DHT22;13825;53.496;10.020;2023-04-01T09:49:16;7.10;99.90
26051;DHT22;13825;53.496;10.020;2023-04-01T09:51:55;7.10;99.90
26051;DHT22;13825;53.496;10.020;2023-04-01T09:54:36;7.30;99.90
26051;DHT22;13825;53.496;10.020;2023-04-01T10:00:15;7.10;99.90
26051;DHT22;13825;53.496;10.020;2023-04-01T10:03:10;7.10;99.90
26051;DHT22;13825;53.496;10.020;2023-04-01T10:11:59;7.10;99.90
26051;DHT22;13825;53.496;10.020;2023-04-01T10:15:04;7.10;99.90
26051;DHT22;13825;53.496;10.020;2023-04-01T10:18:18;7.10;99.90
26051;DHT22;13825;53.496;10.020;2023-04-01T10:27:12;7.00;99.90
26051;DHT22;13825;53.496;10.020;2023-04-01T10:39:17;7.00;99.90
26051;DHT22;13825;53.496;10.020;2023-04-01T10:42:03;7.00;99.90
26051;DHT22;13825;53.496;10.020;2023-04-01T10:48:15;6.90;99.90
26051;DHT22;13825;53.496;10.020;2023-04-01T10:51:11;7.00;99.90
26051;DHT22;13825;53.496;10.020;2023-04-01T10:53:49;7.00;99.90
26051;DHT22;13825;53.496;10.020;2023-04-01T10:56:39;7.20;99.90
26051;DHT22;13825;53.496;10.020;2023-04-01T10:59:40;7.10;99.90
26051;DHT22;13825;53.496;10.020;2023-04-01T11:18:29;7.10;99.90
26051;DHT22;13825;53.496;10.020;2023-04-01T11:24:48;7.20;99.90
26051;DHT22;13825;53.496;10.020;2023-04-01T12:10:44;6.90;99.90
26051;DHT22;13825;53.496;10.020;2023-04-01T12:13:28;6.80;99.90
26051;DHT22;13825;53.496;10.020;2023-04-01T12:16:22;6.90;99.90
26051;DHT22;13825;53.496;10.020;2023-04-01T12:19:00;6.80;99.90
26051;DHT22;13825;53.496;10.020;2023-04-01T12:21:36;7.00;99.90
26051;DHT22;13825;53.496;10.020;2023-04-01T12:24:37;6.90;99.90
26051;DHT22;13825;53.496;10.020;2023-04-01T12:30:45;6.70;99.90
26051;DHT22;13825;53.496;10.020;2023-04-01T12:33:47;6.80;99.90
26051;DHT22;13825;53.496;10.020;2023-04-01T12:39:22;6.70;99.90
26051;DHT22;13825;53.496;10.020;2023-04-01T13:06:18;6.50;99.90
26051;DHT22;13825;53.496;10.020;2023-04-01T13:09:07;6.50;99.90
26051;DHT22;13825;53.496;10.020;2023-04-01T13:12:05;6.40;99.90
26051;DHT22;13825;53.496;10.020;2023-04-01T13:14:57;6.50;99.90
26051;DHT22;13825;53.496;10.020;2023-04-01T13:17:34;6.60;99.90
26051;DHT22;13825;53.496;10.020;2023-04-01T13:20:14;6.50;99.90
26051;DHT22;13825;53.496;10.020;2023-04-01T13:22:58;6.60;99.90
26051;DHT22;13825;53.496;10.020;2023-04-01T13:25:36;6.50;99.90
26051;DHT22;13825;53.496;10.020;2023-04-01T13:36:22;6.50;99.90
26051;DHT22;13825;53.496;10.020;2023-04-01T13:39:19;6.40;99.90
26051;DHT22;13825;53.496;10.020;2023-04-01T13:42:02;6.30;99.90
26051;DHT22;13825;53.496;10.020;2023-04-01T13:44:35;6.30;99.90
26051;DHT22;13825;53.496;10.020;2023-04-01T13:47:27;6.30;99.90
26051;DHT22;13825;53.496;10.020;2023-04-01T13:50:18;6.30;99.90
26051;DHT22;13825;53.496;10.020;2023-04-01T13:56:04;6.40;99.90
26051;DHT22;13825;53.496;10.020;2023-04-01T13:58:54;6.40;99.90
26051;DHT22;13825;53.496;10.020;2023-04-01T14:01:31;6.40;99.90
26051;DHT22;13825;53.496;10.020;2023-04-01T14:04:25;6.30;99.90
26051;DHT22;13825;53.496;10.020;2023-04-01T14:07:18;6.40;99.90
26051;DHT22;13825;53.496;10.020;2023-04-01T14:12:30;6.30;99.90
26051;DHT22;13825;53.496;10.020;2023-04-01T14:15:29;6.30;99.90
26051;DHT22;13825;53.496;10.020;2023-04-01T14:18:33;6.20;99.90
26051;DHT22;13825;53.496;10.020;2023-04-01T14:21:23;6.20;99.90
26051;DHT22;13825;53.496;10.020;2023-04-01T14:24:18;6.20;99.90
26051;DHT22;13825;53.496;10.020;2023-04-01T22:01:19;6.20;99.90
26051;DHT22;13825;53.496;10.020;2023-04-01T22:04:16;2.00;99.90
26051;DHT22;13825;53.496;10.020;2023-04-01T22:06:51;1.90;99.90
26051;DHT22;13825;53.496;10.020;2023-04-01T22:09:37;1.80;99.90
26051;DHT22;13825;53.496;10.020;2023-04-01T22:12:10;1.70;99.90
26051;DHT22;13825;53.496;10.020;2023-04-01T22:14:59;1.80;99.90
26051;DHT22;13825;53.496;10.020;2023-04-01T22:17:43;1.80;99.90
26051;DHT22;13825;53.496;10.020;2023-04-01T22:20:18;1.70;99.90
26051;DHT22;13825;53.496;10.020;2023-04-01T22:22:58;1.80;99.90
26051;DHT22;13825;53.496;10.020;2023-04-01T22:25:34;1.80;99.90
26051;DHT22;13825;53.496;10.020;2023-04-01T22:28:07;1.70;99.90
26051;DHT22;13825;53.496;10.020;2023-04-01T22:30:41;1.80;99.90
26051;DHT22;13825;53.496;10.020;2023-04-01T22:33:14;1.70;99.90
26051;DHT22;13825;53.496;10.020;2023-04-01T22:35:49;1.70;99.90
26051;DHT22;13825;53.496;10.020;2023-04-01T22:38:35;1.70;99.90
26051;DHT22;13825;53.496;10.020;2023-04-01T22:41:13;1.60;99.90
26051;DHT22;13825;53.496;10.020;2023-04-01T22:43:50;1.50;99.90
26051;DHT22;13825;53.496;10.020;2023-04-01T22:46:29;1.70;99.90
26051;DHT22;13825;53.496;10.020;2023-04-01T22:49:08;1.60;99.90
26051;DHT22;13825;53.496;10.020;2023-04-01T22:51:44;1.60;99.90
26051;DHT22;13825;53.496;10.020;2023-04-01T22:54:20;1.60;99.90
26051;DHT22;13825;53.496;10.020;2023-04-01T22:56:55;1.70;99.90
26051;DHT22;13825;53.496;10.020;2023-04-01T22:59:26;1.60;99.90
26051;DHT22;13825;53.496;10.020;2023-04-01T23:02:04;1.60;99.90
26051;DHT22;13825;53.496;10.020;2023-04-01T23:04:37;1.50;99.90
26051;DHT22;13825;53.496;10.020;2023-04-01T23:07:19;1.50;99.90
26051;DHT22;13825;53.496;10.020;2023-04-01T23:09:51;1.40;99.90
26051;DHT22;13825;53.496;10.020;2023-04-01T23:12:22;1.50;99.90
26051;DHT22;13825;53.496;10.020;2023-04-01T23:14:52;1.40;99.90
26051;DHT22;13825;53.496;10.020;2023-04-01T23:17:39;1.40;99.90
26051;DHT22;13825;53.496;10.020;2023-04-01T23:20:25;1.50;99.90
26051;DHT22;13825;53.496;10.020;2023-04-01T23:23:08;1.50;99.90
26051;DHT22;13825;53.496;10.020;2023-04-01T23:25:51;1.50;99.90
26051;DHT22;13825;53.496;10.020;2023-04-01T23:28:38;1.40;99.90
26051;DHT22;13825;53.496;10.020;2023-04-01T23:31:33;1.40;99.90
26051;DHT22;13825;53.496;10.020;2023-04-01T23:34:20;1.30;99.90
26051;DHT22;13825;53.496;10.020;2023-04-01T23:36:50;1.40;99.90
26051;DHT22;13825;53.496;10.020;2023-04-01T23:39:23;1.40;99.90
26051;DHT22;13825;53.496;10.020;2023-04-01T23:41:52;1.50;99.90
26051;DHT22;13825;53.496;10.020;2023-04-01T23:44:24;1.30;99.90
26051;DHT22;13825;53.496;10.020;2023-04-01T23:47:02;1.40;99.90
26051;DHT22;13825;53.496;10.020;2023-04-01T23:49:46;1.30;99.90
26051;DHT22;13825;53.496;10.020;2023-04-01T23:52:21;1.30;99.90
26051;DHT22;13825;53.496;10.020;2023-04-01T23:54:52;1.30;99.90
26051;DHT22;13825;53.496;10.020;2023-04-01T23:57:25;1.30;99.90
